Time;durP1;ratioP1;P1;durP2;ratioP2;P2;SDS_P1;SDS_P2;PMS_P1;PMS_P2;Temp;Humidity;BMP_temperature;BMP_pressure;BME280_temperature;BME280_humidity;BME280_pressure;Samples;Min_cycle;Max_cycle;Signal;HPM_P1;HPM_P2
2022/02/25 00:02:08;;;;;;;12.63;2.33;;;12.20;56.30;;;;;;4863935;29;20196;-79
2022/02/25 00:04:34;;;;;;;6.30;1.90;;;12.10;55.60;;;;;;4863584;29;20452;-80
2022/02/25 00:07:00;;;;;;;7.38;1.63;;;12.10;56.00;;;;;;4862488;29;20266;-80
2022/02/25 00:09:26;;;;;;;7.80;1.80;;;12.00;56.00;;;;;;4864302;29;20129;-79
2022/02/25 00:11:52;;;;;;;9.20;2.15;;;11.90;56.00;;;;;;4863953;29;20049;-78
2022/02/25 00:14:17;;;;;;;9.77;2.67;;;11.90;56.20;;;;;;4864179;29;20053;-79
2022/02/25 00:16:44;;;;;;;7.55;2.08;;;12.00;56.50;;;;;;4862937;29;20124;-81
2022/02/25 00:19:09;;;;;;;8.88;2.00;;;12.00;55.90;;;;;;4861860;29;20046;-79
2022/02/25 00:21:35;;;;;;;6.78;1.80;;;11.90;55.90;;;;;;4864009;29;20086;-79
2022/02/25 00:24:01;;;;;;;8.70;2.13;;;11.90;56.20;;;;;;4862659;29;20201;-78
2022/02/25 00:26:26;;;;;;;8.05;2.17;;;11.90;56.10;;;;;;4863916;29;20129;-78
2022/02/25 00:28:52;;;;;;;6.78;2.17;;;11.90;55.80;;;;;;4863817;29;20041;-77
2022/02/25 00:31:18;;;;;;;9.20;1.88;;;11.90;56.20;;;;;;4862990;29;20399;-78
2022/02/25 00:33:44;;;;;;;4.57;1.25;;;11.90;56.20;;;;;;4863916;29;20045;-79
2022/02/25 00:36:09;;;;;;;9.95;1.77;;;11.90;56.10;;;;;;4863300;29;20057;-80
2022/02/25 00:38:35;;;;;;;6.93;1.55;;;11.90;56.20;;;;;;4859455;29;20050;-80
2022/02/25 00:41:02;;;;;;;8.10;2.00;;;11.90;56.20;;;;;;4857545;29;20049;-78
2022/02/25 00:43:27;;;;;;;7.53;2.50;;;11.90;55.60;;;;;;4847414;29;20124;-80
2022/02/25 00:45:53;;;;;;;9.13;1.40;;;11.90;56.20;;;;;;4863692;29;20116;-84
2022/02/25 00:48:19;;;;;;;8.45;1.77;;;11.90;56.10;;;;;;4862486;29;20168;-82
2022/02/25 00:50:45;;;;;;;10.60;2.17;;;11.90;56.20;;;;;;4857045;29;20060;-79
2022/02/25 00:53:11;;;;;;;7.50;1.90;;;11.90;56.20;;;;;;4862235;29;20535;-81
2022/02/25 00:55:37;;;;;;;12.25;2.50;;;11.90;56.10;;;;;;4847239;29;20133;-81
2022/02/25 00:58:03;;;;;;;9.70;1.65;;;11.90;55.80;;;;;;4862656;29;20084;-79
2022/02/25 01:00:29;;;;;;;7.32;2.00;;;11.90;56.20;;;;;;4863049;29;20057;-82
2022/02/25 01:02:55;;;;;;;8.75;2.03;;;11.90;56.20;;;;;;4863279;29;20057;-80
2022/02/25 01:05:20;;;;;;;9.15;2.08;;;11.90;56.20;;;;;;4862780;29;20475;-80
2022/02/25 01:07:47;;;;;;;9.10;1.83;;;11.90;55.90;;;;;;4840607;29;20198;-81
2022/02/25 01:10:15;;;;;;;12.70;2.38;;;11.90;56.20;;;;;;4862517;29;20050;-81
2022/02/25 01:12:42;;;;;;;7.63;2.30;;;11.90;56.20;;;;;;4855247;29;20053;-81
2022/02/25 01:15:08;;;;;;;8.23;2.63;;;11.90;56.50;;;;;;4862277;29;20042;-79
2022/02/25 01:17:34;;;;;;;9.85;2.63;;;11.90;56.30;;;;;;4861172;29;20057;-80
2022/02/25 01:20:01;;;;;;;9.27;1.75;;;11.80;56.10;;;;;;4862108;29;20577;-79
2022/02/25 01:22:27;;;;;;;7.72;1.88;;;11.80;56.20;;;;;;4862657;29;20371;-79
2022/02/25 01:24:53;;;;;;;9.30;2.03;;;11.80;56.30;;;;;;4862314;29;20057;-79
2022/02/25 01:27:19;;;;;;;10.63;2.35;;;11.80;56.30;;;;;;4862863;29;20056;-80
2022/02/25 01:29:45;;;;;;;12.45;2.38;;;11.80;56.10;;;;;;4861675;29;20053;-78
2022/02/25 01:32:11;;;;;;;10.00;2.45;;;11.80;56.40;;;;;;4861931;29;20065;-80
2022/02/25 01:34:37;;;;;;;8.18;2.22;;;11.80;56.30;;;;;;4860113;29;20068;-80
2022/02/25 01:37:03;;;;;;;9.55;2.22;;;11.80;56.10;;;;;;4861560;29;20475;-79
2022/02/25 01:39:29;;;;;;;11.98;2.25;;;11.80;56.20;;;;;;4861661;29;20050;-80
2022/02/25 01:41:55;;;;;;;7.28;1.70;;;11.80;56.10;;;;;;4853728;29;20072;-81
2022/02/25 01:44:27;;;;;;;8.60;2.35;;;11.80;56.10;;;;;;4862763;29;20075;-80
2022/02/25 01:46:56;;;;;;;10.25;2.33;;;11.80;55.80;;;;;;4862009;29;20107;-79
2022/02/25 01:49:23;;;;;;;9.68;2.88;;;11.80;56.10;;;;;;4857843;29;20045;-79
2022/02/25 01:51:52;;;;;;;11.43;2.17;;;11.70;56.20;;;;;;4861259;29;20054;-81
2022/02/25 01:54:18;;;;;;;8.55;1.85;;;11.70;56.10;;;;;;4862550;29;20368;-80
2022/02/25 01:56:44;;;;;;;12.90;2.90;;;11.70;56.10;;;;;;4862279;29;20113;-80
2022/02/25 01:59:10;;;;;;;8.80;2.35;;;11.70;56.60;;;;;;4862432;29;20050;-80
2022/02/25 02:01:37;;;;;;;9.20;2.42;;;11.70;56.30;;;;;;4845683;29;20186;-79
2022/02/25 02:04:04;;;;;;;11.52;2.08;;;11.70;56.20;;;;;;4845595;29;20053;-80
2022/02/25 02:06:30;;;;;;;9.95;2.35;;;11.60;56.30;;;;;;4861951;29;20061;-78
2022/02/25 02:08:55;;;;;;;11.38;2.67;;;11.60;56.50;;;;;;4861734;29;20098;-80
2022/02/25 02:11:43;;;;;;;8.75;2.33;;;11.60;56.70;;;;;;4859001;29;20563;-79
2022/02/25 02:14:13;;;;;;;8.35;2.35;;;11.60;55.70;;;;;;4860896;29;20061;-81
2022/02/25 02:16:42;;;;;;;8.45;1.95;;;11.60;56.50;;;;;;4861107;29;20046;-78
2022/02/25 02:19:08;;;;;;;8.45;1.70;;;11.60;56.00;;;;;;4861921;29;20395;-81
2022/02/25 02:21:40;;;;;;;12.23;3.03;;;11.60;56.50;;;;;;4862170;29;20057;-79
2022/02/25 02:24:05;;;;;;;7.93;1.90;;;11.60;56.60;;;;;;4859857;29;20053;-81
2022/02/25 02:26:31;;;;;;;11.60;2.40;;;11.60;56.60;;;;;;4861305;29;20145;-82
2022/02/25 02:28:58;;;;;;;9.50;2.08;;;11.60;56.40;;;;;;4861109;29;20057;-80
2022/02/25 02:31:24;;;;;;;7.82;2.33;;;11.60;56.50;;;;;;4862202;29;20049;-80
2022/02/25 02:33:50;;;;;;;9.80;2.38;;;11.60;56.60;;;;;;4860996;29;20050;-79
2022/02/25 02:36:16;;;;;;;10.75;2.28;;;11.50;56.60;;;;;;4860730;29;20061;-79
2022/02/25 02:38:42;;;;;;;9.52;2.25;;;11.50;56.70;;;;;;4857011;29;20049;-79
2022/02/25 02:41:08;;;;;;;7.13;2.45;;;11.50;56.60;;;;;;4846076;29;20067;-81
2022/02/25 02:43:35;;;;;;;16.17;3.35;;;11.50;56.80;;;;;;4862218;29;20126;-80
2022/02/25 02:46:00;;;;;;;14.55;2.30;;;11.40;56.70;;;;;;4861509;29;20053;-78
2022/02/25 02:48:26;;;;;;;10.98;2.50;;;11.40;57.10;;;;;;4860915;29;20475;-79
2022/02/25 02:50:53;;;;;;;7.13;2.15;;;11.40;57.00;;;;;;4860665;29;20053;-79
2022/02/25 02:53:19;;;;;;;7.20;2.15;;;11.40;56.90;;;;;;4861302;29;20081;-80
2022/02/25 02:55:45;;;;;;;7.32;2.05;;;11.40;57.30;;;;;;4859592;29;20371;-80
2022/02/25 02:58:12;;;;;;;11.85;2.33;;;11.40;57.20;;;;;;4864944;29;20090;-80
2022/02/25 03:00:40;;;;;;;8.98;2.35;;;11.50;57.30;;;;;;4858482;29;20167;-81
2022/02/25 03:03:06;;;;;;;12.73;2.53;;;11.50;57.00;;;;;;4864306;29;20482;-81
2022/02/25 03:05:34;;;;;;;10.73;2.08;;;11.40;57.00;;;;;;4863993;29;20065;-77
2022/02/25 03:07:59;;;;;;;9.30;3.08;;;11.40;57.20;;;;;;4865194;29;20463;-78
2022/02/25 03:10:25;;;;;;;11.10;2.80;;;11.40;57.00;;;;;;4863667;29;20056;-79
2022/02/25 03:12:51;;;;;;;10.57;2.97;;;11.40;56.90;;;;;;4864674;29;20053;-79
2022/02/25 03:15:17;;;;;;;12.70;2.75;;;11.30;57.20;;;;;;4865021;29;20057;-80
2022/02/25 03:17:44;;;;;;;10.77;3.05;;;11.30;57.20;;;;;;4865216;29;20093;-79
2022/02/25 03:20:11;;;;;;;14.48;3.13;;;11.30;57.00;;;;;;4865038;29;20045;-79
2022/02/25 03:22:37;;;;;;;15.43;2.70;;;11.30;57.10;;;;;;4863950;29;20497;-81
2022/02/25 03:25:05;;;;;;;9.45;2.60;;;11.30;57.00;;;;;;4863931;29;20045;-82
2022/02/25 03:27:31;;;;;;;9.52;2.83;;;11.30;56.70;;;;;;4863853;29;20061;-81
2022/02/25 03:29:57;;;;;;;9.20;2.17;;;11.30;56.90;;;;;;4858215;29;20046;-79
2022/02/25 03:32:23;;;;;;;11.00;2.00;;;11.30;56.90;;;;;;4863769;29;20054;-80
2022/02/25 03:34:50;;;;;;;8.70;2.70;;;11.20;56.90;;;;;;4864683;29;20475;-80
2022/02/25 03:37:17;;;;;;;12.80;2.63;;;11.20;57.00;;;;;;4864968;29;20105;-78
2022/02/25 03:39:43;;;;;;;11.90;2.72;;;11.20;57.10;;;;;;4863766;29;20112;-78
2022/02/25 03:42:08;;;;;;;16.38;3.03;;;11.20;57.10;;;;;;4864909;29;20436;-78
2022/02/25 03:44:34;;;;;;;14.10;2.90;;;11.20;57.20;;;;;;4863595;29;20053;-81
2022/02/25 03:47:00;;;;;;;12.18;2.63;;;11.20;57.30;;;;;;4864717;29;20056;-81
2022/02/25 03:49:26;;;;;;;10.20;2.58;;;11.20;57.10;;;;;;4863589;29;20121;-77
2022/02/25 03:51:53;;;;;;;8.38;2.13;;;11.20;57.40;;;;;;4856600;29;20049;-80
2022/02/25 03:54:19;;;;;;;12.65;2.88;;;11.20;57.20;;;;;;4864421;29;20388;-80
2022/02/25 03:56:45;;;;;;;11.18;2.63;;;11.20;57.30;;;;;;4862988;29;20061;-79
2022/02/25 03:59:11;;;;;;;10.85;2.78;;;11.20;57.30;;;;;;4863918;29;20053;-80
2022/02/25 04:01:37;;;;;;;13.50;3.17;;;11.20;57.50;;;;;;4860619;29;20489;-78
2022/02/25 04:04:03;;;;;;;13.57;3.03;;;11.20;57.60;;;;;;4864641;29;20069;-79
2022/02/25 04:06:29;;;;;;;12.23;2.60;;;11.10;57.30;;;;;;4862975;29;20464;-79
2022/02/25 04:08:55;;;;;;;10.20;2.83;;;11.20;57.70;;;;;;4862976;29;20053;-81
2022/02/25 04:11:21;;;;;;;16.55;2.78;;;11.20;57.50;;;;;;4864176;29;20112;-78
2022/02/25 04:13:48;;;;;;;9.70;2.40;;;11.20;57.50;;;;;;4863220;29;20190;-80
2022/02/25 04:16:14;;;;;;;11.27;2.72;;;11.20;57.50;;;;;;4863233;29;20061;-78
2022/02/25 04:18:41;;;;;;;10.57;2.33;;;11.10;57.60;;;;;;4862921;29;20102;-79
2022/02/25 04:21:07;;;;;;;9.40;2.30;;;11.20;57.70;;;;;;4856949;29;20056;-80
2022/02/25 04:23:33;;;;;;;12.73;2.90;;;11.20;57.30;;;;;;4863916;29;20045;-79
2022/02/25 04:25:58;;;;;;;10.27;2.85;;;11.10;57.50;;;;;;4861929;29;20371;-80
2022/02/25 04:28:24;;;;;;;8.23;1.88;;;11.10;57.20;;;;;;4863215;29;20053;-81
2022/02/25 04:30:50;;;;;;;9.88;2.40;;;11.10;57.40;;;;;;4863518;29;20134;-80
2022/02/25 04:33:17;;;;;;;10.95;2.17;;;11.20;57.60;;;;;;4862950;29;20053;-79
2022/02/25 04:35:43;;;;;;;10.40;2.63;;;11.10;57.50;;;;;;4863716;29;20050;-79
2022/02/25 04:38:09;;;;;;;10.15;2.17;;;11.10;57.70;;;;;;4863472;29;20141;-80
2022/02/25 04:40:35;;;;;;;10.13;2.60;;;11.20;57.80;;;;;;4862668;29;20054;-81
2022/02/25 04:43:02;;;;;;;10.20;2.22;;;11.20;57.70;;;;;;4862578;29;20057;-79
2022/02/25 04:45:28;;;;;;;12.13;2.50;;;11.10;57.50;;;;;;4863723;29;20061;-79
2022/02/25 04:47:56;;;;;;;8.05;2.25;;;11.10;57.50;;;;;;4862809;29;20058;-78
2022/02/25 04:50:23;;;;;;;12.93;3.38;;;11.10;57.80;;;;;;4855623;29;20064;-77
2022/02/25 04:52:49;;;;;;;11.65;3.05;;;11.10;57.70;;;;;;4863570;29;20213;-78
2022/02/25 04:55:15;;;;;;;12.05;3.08;;;11.10;57.50;;;;;;4861562;29;20468;-78
2022/02/25 04:57:40;;;;;;;10.57;2.42;;;11.10;57.80;;;;;;4862304;29;20157;-80
2022/02/25 05:00:10;;;;;;;14.73;2.85;;;11.10;57.70;;;;;;4862241;29;20045;-79
2022/02/25 05:02:38;;;;;;;14.85;3.85;;;11.00;57.80;;;;;;4859674;29;20056;-80
2022/02/25 05:05:05;;;;;;;12.75;2.67;;;11.00;58.00;;;;;;4862947;29;20079;-80
2022/02/25 05:07:31;;;;;;;12.80;2.72;;;11.00;58.10;;;;;;4861810;29;20053;-80
2022/02/25 05:09:57;;;;;;;10.30;2.33;;;11.00;58.10;;;;;;4863141;29;20096;-79
2022/02/25 05:12:23;;;;;;;10.05;3.38;;;11.10;58.60;;;;;;4862908;29;20089;-80
2022/02/25 05:20:26;;;;;;;11.95;1.92;;;10.90;58.40;;;;;;4862684;29;20270;-80
2022/02/25 05:23:00;;;;;;;7.95;2.00;;;11.00;58.90;;;;;;4862188;29;20060;-81
2022/02/25 05:25:28;;;;;;;8.75;1.95;;;10.90;59.10;;;;;;4861843;29;20467;-80
2022/02/25 05:27:56;;;;;;;8.95;2.50;;;11.00;59.20;;;;;;4862961;29;20041;-83
2022/02/25 05:30:23;;;;;;;7.40;2.33;;;11.00;59.30;;;;;;4862419;29;20057;-80
2022/02/25 05:32:49;;;;;;;7.32;1.77;;;11.00;59.30;;;;;;4861840;29;20041;-80
2022/02/25 05:35:16;;;;;;;10.45;2.20;;;11.10;59.30;;;;;;4862790;29;20198;-81
2022/02/25 05:37:43;;;;;;;11.13;1.85;;;11.10;59.30;;;;;;4861538;29;20055;-80
2022/02/25 05:40:11;;;;;;;7.85;2.08;;;11.10;59.50;;;;;;4861027;29;20108;-78
2022/02/25 05:42:38;;;;;;;8.80;1.65;;;11.10;59.60;;;;;;4862374;29;20049;-80
2022/02/25 05:45:08;;;;;;;14.85;2.70;;;11.20;59.60;;;;;;4861846;29;20081;-79
2022/02/25 05:47:39;;;;;;;12.10;2.58;;;11.30;59.50;;;;;;4862054;29;20065;-84
2022/02/25 05:50:07;;;;;;;11.88;2.28;;;11.40;59.30;;;;;;4861616;29;20479;-77
2022/02/25 05:52:34;;;;;;;13.82;2.33;;;11.50;58.50;;;;;;4862873;29;20142;-73
2022/02/25 05:54:59;;;;;;;11.80;2.67;;;11.60;58.10;;;;;;4862043;29;20375;-72
2022/02/25 05:57:25;;;;;;;9.25;2.33;;;11.60;58.10;;;;;;4862452;29;20041;-80
2022/02/25 05:59:51;;;;;;;9.45;2.55;;;11.60;58.50;;;;;;4846425;29;20137;-76
2022/02/25 06:02:17;;;;;;;11.15;2.72;;;11.60;58.80;;;;;;4862512;29;20448;-79
2022/02/25 06:04:45;;;;;;;10.15;2.47;;;11.70;58.60;;;;;;4830663;29;20054;-82
2022/02/25 06:07:11;;;;;;;8.52;1.70;;;11.80;58.50;;;;;;4846003;29;20421;-79
2022/02/25 06:09:37;;;;;;;8.48;1.92;;;12.00;58.90;;;;;;4862773;29;20109;-77
2022/02/25 06:12:05;;;;;;;7.53;1.58;;;12.30;58.40;;;;;;4862093;29;20061;-77
2022/02/25 06:14:31;;;;;;;8.25;2.40;;;12.50;58.20;;;;;;4862520;29;20109;-78
2022/02/25 06:16:56;;;;;;;8.32;2.05;;;12.80;58.10;;;;;;4862061;29;20045;-77
2022/02/25 06:19:22;;;;;;;8.23;2.28;;;13.00;58.00;;;;;;4862588;29;20124;-78
2022/02/25 06:21:48;;;;;;;8.80;1.83;;;13.20;57.90;;;;;;4862745;29;20413;-79
2022/02/25 06:24:14;;;;;;;8.45;2.25;;;13.40;57.70;;;;;;4861678;29;20065;-78
2022/02/25 06:26:40;;;;;;;4.63;1.85;;;13.60;57.60;;;;;;4862745;29;20050;-78
2022/02/25 06:29:07;;;;;;;11.00;1.60;;;13.80;57.60;;;;;;4864709;29;20474;-77
2022/02/25 06:31:33;;;;;;;7.50;2.28;;;13.90;57.90;;;;;;4866328;29;20057;-78
2022/02/25 06:33:58;;;;;;;11.73;2.42;;;13.80;57.80;;;;;;4865308;29;20080;-72
2022/02/25 06:36:24;;;;;;;14.73;2.28;;;14.00;58.10;;;;;;4866810;29;20057;-77
2022/02/25 06:38:50;;;;;;;16.20;2.97;;;14.10;58.30;;;;;;4866268;29;20042;-77
2022/02/25 06:41:16;;;;;;;15.85;2.97;;;14.20;58.70;;;;;;4866127;29;20436;-77
2022/02/25 06:43:42;;;;;;;21.38;3.13;;;14.40;58.50;;;;;;4866354;29;20379;-72
2022/02/25 06:46:11;;;;;;;11.20;2.08;;;14.50;58.70;;;;;;4865730;29;20463;-76
2022/02/25 06:48:38;;;;;;;11.93;1.80;;;14.60;58.50;;;;;;4865965;29;20053;-77
2022/02/25 06:51:04;;;;;;;12.45;1.90;;;14.70;58.90;;;;;;4865577;29;20049;-80
2022/02/25 06:53:30;;;;;;;13.75;2.20;;;14.80;58.90;;;;;;4864939;29;20060;-77
2022/02/25 06:55:55;;;;;;;14.68;2.63;;;14.90;58.80;;;;;;4864083;29;20050;-77
2022/02/25 06:58:21;;;;;;;11.63;2.17;;;15.00;58.90;;;;;;4865389;29;20049;-78
2022/02/25 07:00:47;;;;;;;11.18;2.20;;;15.10;58.90;;;;;;4864106;29;20068;-77
2022/02/25 07:03:12;;;;;;;11.00;2.72;;;15.10;58.90;;;;;;4865096;29;20081;-77
2022/02/25 07:05:41;;;;;;;8.30;2.30;;;15.20;58.80;;;;;;4865281;29;20059;-78
2022/02/25 07:08:08;;;;;;;14.15;2.38;;;15.30;58.80;;;;;;4864968;29;20413;-78
2022/02/25 07:10:35;;;;;;;15.02;2.28;;;15.30;58.70;;;;;;4865157;29;20041;-77
2022/02/25 07:13:02;;;;;;;12.30;2.25;;;15.30;59.00;;;;;;4864943;29;20429;-78
2022/02/25 07:15:29;;;;;;;22.65;2.65;;;15.40;58.80;;;;;;4862831;29;20087;-77
2022/02/25 07:17:57;;;;;;;17.98;2.38;;;15.50;58.70;;;;;;4861730;29;20068;-80
2022/02/25 07:20:23;;;;;;;10.73;2.05;;;15.50;58.60;;;;;;4864802;29;20972;-78
2022/02/25 07:22:49;;;;;;;8.48;2.47;;;15.60;58.60;;;;;;4864039;29;20060;-77
2022/02/25 07:25:15;;;;;;;10.73;1.60;;;15.70;58.30;;;;;;4864539;29;20371;-75
2022/02/25 07:27:42;;;;;;;11.65;1.67;;;15.80;58.20;;;;;;4864635;29;20105;-75
2022/02/25 07:30:11;;;;;;;6.65;1.55;;;15.90;58.10;;;;;;4864760;29;20041;-78
2022/02/25 07:32:37;;;;;;;10.85;2.22;;;15.90;58.20;;;;;;4864808;29;20042;-80
2022/02/25 07:35:04;;;;;;;12.93;2.47;;;16.00;58.60;;;;;;4863790;29;20080;-83
2022/02/25 07:37:30;;;;;;;14.48;2.10;;;16.00;58.70;;;;;;4848254;29;21735;-80
2022/02/25 07:39:56;;;;;;;11.82;1.77;;;16.10;59.00;;;;;;4863691;29;20033;-82
2022/02/25 07:42:23;;;;;;;15.82;1.80;;;16.10;58.90;;;;;;4863659;29;20049;-84
2022/02/25 07:44:49;;;;;;;7.90;1.73;;;16.20;58.90;;;;;;4848136;29;20076;-84
2022/02/25 07:47:16;;;;;;;13.20;2.33;;;16.40;58.80;;;;;;4864148;29;20053;-82
2022/02/25 07:49:44;;;;;;;8.95;1.83;;;16.40;58.70;;;;;;4856229;29;20041;-81
2022/02/25 07:52:10;;;;;;;13.00;2.65;;;16.50;58.70;;;;;;4862721;29;20052;-85
2022/02/25 07:54:35;;;;;;;17.40;2.53;;;16.50;58.60;;;;;;4848600;29;20057;-82
2022/02/25 07:57:03;;;;;;;9.68;2.15;;;16.50;58.60;;;;;;4847690;29;20161;-83
2022/02/25 07:59:29;;;;;;;12.95;2.03;;;16.60;58.60;;;;;;4864649;29;20050;-80
2022/02/25 08:01:55;;;;;;;9.25;1.77;;;16.60;58.00;;;;;;4833107;29;20069;-81
2022/02/25 08:04:20;;;;;;;10.50;1.60;;;16.60;57.90;;;;;;4850554;29;20402;-79
2022/02/25 08:06:46;;;;;;;10.13;1.83;;;16.70;57.70;;;;;;4848001;29;20499;-82
2022/02/25 08:09:12;;;;;;;13.88;2.08;;;16.70;57.80;;;;;;4863177;29;20085;-80
2022/02/25 08:11:38;;;;;;;8.13;1.75;;;16.60;57.60;;;;;;4848109;29;20121;-80
2022/02/25 08:14:04;;;;;;;9.27;2.45;;;16.60;57.40;;;;;;4848143;29;20152;-77
2022/02/25 08:16:30;;;;;;;11.68;2.25;;;16.60;57.50;;;;;;4852838;29;20050;-79
2022/02/25 08:18:56;;;;;;;17.08;2.42;;;16.60;57.30;;;;;;4829787;29;20133;-79
2022/02/25 08:21:21;;;;;;;9.27;1.85;;;16.60;57.30;;;;;;4844909;29;20050;-78
2022/02/25 08:23:47;;;;;;;9.07;1.88;;;16.60;57.10;;;;;;4845339;29;20094;-82
2022/02/25 08:26:13;;;;;;;16.55;2.53;;;16.60;57.30;;;;;;4849917;29;20049;-82
2022/02/25 08:28:39;;;;;;;13.98;2.33;;;16.60;57.40;;;;;;4869887;29;20052;-80
2022/02/25 08:31:05;;;;;;;13.27;2.17;;;16.50;57.40;;;;;;4869418;29;20528;-77
2022/02/25 08:33:30;;;;;;;17.55;2.47;;;16.50;57.70;;;;;;4863544;29;20132;-79
2022/02/25 08:35:56;;;;;;;13.05;2.22;;;16.50;57.90;;;;;;4862908;29;20449;-81
2022/02/25 08:38:22;;;;;;;15.98;2.38;;;16.50;57.90;;;;;;4848681;29;20049;-77
2022/02/25 08:40:47;;;;;;;21.00;2.90;;;16.50;57.90;;;;;;4866543;29;20379;-81
2022/02/25 08:43:15;;;;;;;14.05;2.28;;;16.50;57.90;;;;;;4855761;29;20471;-82
2022/02/25 08:45:41;;;;;;;14.23;2.00;;;16.50;57.80;;;;;;4829534;29;20136;-85
2022/02/25 08:48:08;;;;;;;14.10;2.72;;;16.50;57.90;;;;;;4856868;29;20124;-88
2022/02/25 08:50:39;;;;;;;17.85;2.85;;;16.50;58.00;;;;;;4847564;29;20045;-87
2022/02/25 08:53:22;;;;;;;14.10;2.70;;;16.50;58.00;;;;;;4811979;29;20046;-83
2022/02/25 09:03:40;;;;;;;11.05;2.55;;;16.70;58.20;;;;;;4863586;29;20474;-85
2022/02/25 09:06:06;;;;;;;11.18;2.63;;;16.70;58.00;;;;;;4832029;29;20085;-84
2022/02/25 09:08:32;;;;;;;8.07;3.00;;;16.70;57.90;;;;;;4848037;29;20081;-82
2022/02/25 09:10:58;;;;;;;10.40;2.67;;;16.80;57.70;;;;;;4847346;29;20511;-82
2022/02/25 09:13:24;;;;;;;11.93;3.03;;;16.80;57.60;;;;;;4847340;29;20056;-82
2022/02/25 09:15:49;;;;;;;14.90;3.33;;;16.80;57.60;;;;;;4847133;29;20085;-79
2022/02/25 09:18:15;;;;;;;9.93;2.22;;;16.90;57.70;;;;;;4831654;29;20383;-83
2022/02/25 09:20:43;;;;;;;16.77;2.67;;;16.90;57.40;;;;;;4847364;29;20056;-80
2022/02/25 09:23:09;;;;;;;12.73;2.45;;;17.00;57.30;;;;;;4863347;29;20049;-80
2022/02/25 09:25:34;;;;;;;11.88;2.88;;;17.00;57.10;;;;;;4861853;29;20064;-80
2022/02/25 09:28:01;;;;;;;12.63;2.65;;;17.00;57.10;;;;;;4846210;29;20109;-84
2022/02/25 09:30:27;;;;;;;9.50;2.50;;;17.00;56.50;;;;;;4846892;29;20045;-81
2022/02/25 09:33:00;;;;;;;9.57;2.25;;;17.00;56.70;;;;;;4846334;29;20041;-86
2022/02/25 09:35:31;;;;;;;10.00;3.20;;;17.00;56.60;;;;;;4862275;29;20081;-85
2022/02/25 09:37:59;;;;;;;10.45;2.95;;;17.00;56.70;;;;;;4846473;29;20463;-86
2022/02/25 09:40:26;;;;;;;11.80;2.40;;;17.00;57.10;;;;;;4847027;29;20049;-81
2022/02/25 09:42:57;;;;;;;11.60;3.00;;;17.00;57.30;;;;;;4847108;29;20049;-79
2022/02/25 09:45:23;;;;;;;10.43;2.67;;;17.10;57.60;;;;;;4856186;29;20434;-81
2022/02/25 09:47:49;;;;;;;11.23;2.90;;;17.10;58.50;;;;;;4859743;29;20087;-82
2022/02/25 09:50:18;;;;;;;10.75;2.60;;;17.10;58.20;;;;;;4861144;29;20049;-79
2022/02/25 09:52:45;;;;;;;12.60;2.88;;;17.10;57.30;;;;;;4862030;29;20139;-78
2022/02/25 09:55:25;;;;;;;13.60;3.10;;;17.10;57.10;;;;;;4862891;29;20064;-78
2022/02/25 09:57:52;;;;;;;12.55;2.63;;;16.70;54.10;;;;;;4846030;29;20061;-77
2022/02/25 10:00:20;;;;;;;18.55;3.65;;;16.80;58.00;;;;;;4861182;29;20501;-74
2022/02/25 10:02:50;;;;;;;15.77;3.13;;;16.20;57.60;;;;;;4862185;29;20061;-79
2022/02/25 10:05:19;;;;;;;16.80;2.92;;;16.00;59.80;;;;;;4862765;29;20057;-79
2022/02/25 10:07:45;;;;;;;11.55;3.75;;;15.90;61.40;;;;;;4862759;29;20057;-79
2022/02/25 10:10:13;;;;;;;16.88;3.13;;;16.10;61.10;;;;;;4861408;29;20064;-79
2022/02/25 10:12:44;;;;;;;11.52;2.30;;;16.30;60.90;;;;;;4866942;29;20049;-80
2022/02/25 10:15:10;;;;;;;13.95;3.38;;;16.40;60.70;;;;;;4866988;29;20053;-76
2022/02/25 10:17:37;;;;;;;11.05;2.33;;;16.30;58.70;;;;;;4876952;29;20494;-79
2022/02/25 10:20:07;;;;;;;13.95;2.53;;;16.40;60.40;;;;;;4881160;29;20089;-79
2022/02/25 10:22:41;;;;;;;11.65;2.78;;;16.50;60.40;;;;;;4877512;29;20057;-77
2022/02/25 10:25:09;;;;;;;14.55;3.10;;;16.70;60.50;;;;;;4881079;29;20082;-78
2022/02/25 10:27:44;;;;;;;10.35;2.25;;;16.70;60.20;;;;;;4879953;29;20060;-80
2022/02/25 10:30:15;;;;;;;8.07;2.17;;;16.80;60.50;;;;;;4880340;29;20052;-80
2022/02/25 10:32:47;;;;;;;8.93;2.00;;;16.90;60.60;;;;;;4864787;29;20093;-79
2022/02/25 10:35:23;;;;;;;6.25;1.77;;;17.00;60.70;;;;;;4880906;29;20059;-82
2022/02/25 10:37:54;;;;;;;11.38;2.47;;;17.10;60.90;;;;;;4880919;29;20076;-80
2022/02/25 10:40:20;;;;;;;8.20;1.90;;;17.10;60.80;;;;;;4879801;29;20137;-78
2022/02/25 10:42:46;;;;;;;10.88;2.40;;;17.10;60.80;;;;;;4881370;29;20123;-79
2022/02/25 10:45:11;;;;;;;9.85;2.35;;;17.10;60.80;;;;;;4880059;29;20375;-80
2022/02/25 10:47:43;;;;;;;7.53;2.20;;;17.10;60.90;;;;;;4871292;29;20441;-79
2022/02/25 10:50:12;;;;;;;11.75;2.50;;;17.20;61.10;;;;;;4861467;29;20475;-77
2022/02/25 10:52:46;;;;;;;7.57;1.70;;;17.20;61.20;;;;;;4862171;29;20070;-79
2022/02/25 10:55:13;;;;;;;;;;;17.20;60.90;;;;;;4861593;29;20464;-80
2022/02/25 10:57:39;;;;;;;6.85;1.50;;;17.20;61.10;;;;;;4845711;29;19924;-81
2022/02/25 11:00:09;;;;;;;11.85;1.75;;;17.20;60.90;;;;;;4860943;29;20117;-78
2022/02/25 11:02:36;;;;;;;8.35;1.88;;;17.20;61.10;;;;;;4862038;29;20341;-80
2022/02/25 11:05:12;;;;;;;8.85;1.63;;;17.20;61.00;;;;;;4861238;29;20380;-78
2022/02/25 11:07:40;;;;;;;6.43;1.70;;;17.30;61.00;;;;;;4873214;29;20427;-79
2022/02/25 11:10:07;;;;;;;5.90;1.40;;;17.30;60.80;;;;;;4880643;29;20045;-79
2022/02/25 11:12:40;;;;;;;7.35;1.52;;;17.30;60.70;;;;;;4880033;29;20057;-80
2022/02/25 11:15:08;;;;;;;7.57;1.40;;;17.30;60.50;;;;;;4866327;29;20056;-80
2022/02/25 11:17:35;;;;;;;6.80;1.55;;;17.30;60.40;;;;;;4868646;29;20081;-79
2022/02/25 11:20:04;;;;;;;6.45;1.50;;;17.30;60.30;;;;;;4865628;29;20080;-79
2022/02/25 11:22:36;;;;;;;6.18;1.33;;;17.30;60.20;;;;;;4864490;29;20049;-78
2022/02/25 11:25:02;;;;;;;5.68;1.48;;;17.30;60.10;;;;;;4864592;29;20057;-79
2022/02/25 11:27:28;;;;;;;8.32;1.67;;;17.30;60.00;;;;;;4865067;29;20482;-81
2022/02/25 11:30:04;;;;;;;5.68;1.27;;;17.20;59.80;;;;;;4863925;29;20049;-80
2022/02/25 11:32:54;;;;;;;4.07;1.20;;;17.20;59.70;;;;;;4865572;29;20198;-80
2022/02/25 11:35:22;;;;;;;4.20;1.08;;;17.20;59.60;;;;;;4864407;29;20068;-78
2022/02/25 11:38:09;;;;;;;5.47;1.15;;;17.20;59.60;;;;;;4864657;29;20063;-81
2022/02/25 11:41:05;;;;;;;2.75;0.77;;;17.20;59.40;;;;;;4848887;29;20124;-80
2022/02/25 11:43:42;;;;;;;3.80;1.05;;;17.20;59.30;;;;;;4864374;29;20053;-77
2022/02/25 11:46:13;;;;;;;7.85;1.17;;;17.30;59.40;;;;;;4864088;29;20057;-81
2022/02/25 11:48:48;;;;;;;5.10;1.02;;;17.30;59.40;;;;;;4848838;29;20053;-80
2022/02/25 11:51:32;;;;;;;3.78;1.08;;;17.30;59.30;;;;;;4864999;29;20053;-81
2022/02/25 11:54:17;;;;;;;3.88;0.98;;;17.30;59.10;;;;;;4864999;29;20109;-78
2022/02/25 11:56:42;;;;;;;7.70;1.05;;;17.30;59.00;;;;;;4864286;29;20046;-78
2022/02/25 11:59:08;;;;;;;4.80;1.00;;;17.30;59.00;;;;;;4848809;29;20064;-83
2022/02/25 12:01:34;;;;;;;3.92;0.90;;;17.30;59.00;;;;;;4848966;29;20046;-80
2022/02/25 12:04:12;;;;;;;3.83;1.10;;;17.30;59.00;;;;;;4848880;29;20452;-81
2022/02/25 12:07:02;;;;;;;6.45;1.30;;;17.30;58.60;;;;;;4863549;29;20057;-81
2022/02/25 12:10:12;;;;;;;9.88;1.45;;;17.30;58.20;;;;;;4865162;29;20345;-81
2022/02/25 12:12:42;;;;;;;5.38;1.35;;;16.80;57.30;;;;;;4754722;30;20052;-80
2022/02/25 12:15:44;;;;;;;13.23;2.30;;;16.80;60.20;;;;;;4846111;29;20065;-81
2022/02/25 12:18:15;;;;;;;11.45;1.55;;;16.90;60.90;;;;;;4863239;29;20132;-83
2022/02/25 12:20:48;;;;;;;8.57;1.35;;;17.00;61.30;;;;;;4848019;29;20491;-80
2022/02/25 12:23:24;;;;;;;7.03;1.45;;;17.00;60.90;;;;;;4864171;29;20037;-78
2022/02/25 12:26:04;;;;;;;6.72;1.42;;;17.10;61.00;;;;;;4862544;29;20045;-77
2022/02/25 12:28:33;;;;;;;9.30;1.55;;;17.10;61.40;;;;;;4864187;29;20042;-77
2022/02/25 12:31:00;;;;;;;8.25;1.25;;;17.20;61.30;;;;;;4864250;29;20069;-78
2022/02/25 12:33:34;;;;;;;6.65;1.52;;;17.20;61.10;;;;;;4864050;29;20049;-79
2022/02/25 12:36:08;;;;;;;6.53;1.42;;;17.30;61.40;;;;;;4862915;29;20042;-81
2022/02/25 12:38:39;;;;;;;3.65;1.02;;;17.30;61.30;;;;;;4847645;29;20124;-85
2022/02/25 12:41:20;;;;;;;10.07;1.48;;;17.30;61.20;;;;;;4847935;29;20056;-77
2022/02/25 12:44:00;;;;;;;4.90;1.30;;;17.40;61.50;;;;;;4862910;29;20129;-79
2022/02/25 12:46:31;;;;;;;7.57;1.02;;;17.40;61.70;;;;;;4845563;29;20137;-78
2022/02/25 12:48:58;;;;;;;7.18;1.02;;;17.40;61.90;;;;;;4844219;29;20372;-75
2022/02/25 12:51:24;;;;;;;6.35;1.45;;;17.40;62.20;;;;;;4845215;29;20132;-78
2022/02/25 12:54:01;;;;;;;9.68;1.58;;;17.40;62.30;;;;;;4844460;29;20375;-80
2022/02/25 12:56:32;;;;;;;9.55;1.30;;;17.40;62.40;;;;;;4829239;29;20058;-80
2022/02/25 12:59:09;;;;;;;10.05;1.63;;;17.40;62.40;;;;;;4845370;29;20456;-80
2022/02/25 13:01:47;;;;;;;6.07;1.20;;;17.40;62.60;;;;;;4855267;29;20052;-80